aviador You're here:

KAZO Decoded Metar

KALAMAZOO in MI, USA
Report Time2017-05-29 02:53:00
UTC Time2017-05-29 03:52:38
Flight Rules vfr VFR
Wind230° at 04 kt
W.Decomp.*RWY 23: 4.0 kt HW 0.2 kt RCW
RWY 27: 3.2 kt HW 2.4 kt LCW
RWY 17: 1.8 kt HW 3.6 kt RCW
W.Rank230° ranks 8
Current wind is below 230° avg. (8.1)
Visibility9999 m
Phenomena:N/A
Clouds:N/A
Expected CloudBase > 1,600 ft AGL from Temp-Dew spread
CeilingNone
Temp15°C (ISA +2)
Dew Point11°C (77% RH)
AAT13.9°C
QNH1008 hPa
Density Alt1,450 ft
Elevation892 ft
Report Wrong Elevation
Raw Report
METAR KAZO 290253Z 23004KT 10SM CLR 15/11 A2976 RMK AO2 SLP076 T01500111
50014=

Extra information for KAZO:More info

Metar Taf Metar & Taf Last 4 Metars F.Rules Stats Wind Profile Meteogram Temp Stats Airport Information Weather charts Add Link Nearby VenuesMetar ALERT Operation Metar Decoded Social comments

AIRNAV info for KAZO